Time;durP1;ratioP1;P1;durP2;ratioP2;P2;SDS_P1;SDS_P2;PMS_P1;PMS_P2;Temp;Humidity;BMP_temperature;BMP_pressure;BME280_temperature;BME280_humidity;BME280_pressure;Samples;Min_cycle;Max_cycle;Signal;HPM_P1;HPM_P2
2023/06/05 00:00:11;;;;;;;3.47;2.20;;;;;;;;;;5134361;27;20515;-59
2023/06/05 00:02:38;;;;;;;4.05;1.90;;;;;;;;;;5135463;27;20051;-59
2023/06/05 00:05:08;;;;;;;3.83;2.13;;;;;;;;;;5122311;27;20047;-59
2023/06/05 00:07:37;;;;;;;3.20;2.13;;;;;;;;;;5135246;27;20051;-59
2023/06/05 00:10:04;;;;;;;5.05;2.30;;;;;;;;;;5134927;27;20054;-59
2023/06/05 00:12:31;;;;;;;3.90;2.45;;;;;;;;;;5135091;27;20506;-59
2023/06/05 00:14:58;;;;;;;4.72;2.35;;;;;;;;;;5135018;27;20051;-59
2023/06/05 00:17:26;;;;;;;4.82;2.10;;;;;;;;;;5120810;27;20381;-59
2023/06/05 00:19:58;;;;;;;4.65;2.55;;;;;;;;;;5114728;28;20052;-59
2023/06/05 00:22:25;;;;;;;3.20;2.30;;;;;;;;;;5114639;28;20052;-59
2023/06/05 00:24:52;;;;;;;3.13;1.85;;;;;;;;;;5114155;28;20078;-59
2023/06/05 00:27:19;;;;;;;4.65;1.90;;;;;;;;;;5114425;28;20047;-59
2023/06/05 00:29:46;;;;;;;4.75;2.40;;;;;;;;;;5114363;28;20051;-59
2023/06/05 00:32:13;;;;;;;4.32;2.35;;;;;;;;;;5116065;27;20051;-59
2023/06/05 00:34:41;;;;;;;6.10;2.65;;;;;;;;;;5113908;28;20066;-59
2023/06/05 00:37:08;;;;;;;3.53;2.17;;;;;;;;;;5114142;28;20059;-59
2023/06/05 00:39:35;;;;;;;3.88;2.67;;;;;;;;;;5114412;28;20044;-59
2023/06/05 00:42:01;;;;;;;3.75;2.38;;;;;;;;;;5114238;28;20063;-59
2023/06/05 00:44:28;;;;;;;5.25;2.63;;;;;;;;;;5113540;28;20047;-59
2023/06/05 00:46:55;;;;;;;3.85;2.60;;;;;;;;;;5126764;27;20054;-59
2023/06/05 00:49:22;;;;;;;4.63;2.25;;;;;;;;;;5133476;27;20062;-59
2023/06/05 00:51:51;;;;;;;3.83;2.40;;;;;;;;;;5133421;27;20507;-59
2023/06/05 00:54:18;;;;;;;5.85;2.30;;;;;;;;;;5134380;27;20051;-58
2023/06/05 00:56:45;;;;;;;4.20;2.63;;;;;;;;;;5134127;27;20487;-58
2023/06/05 00:59:13;;;;;;;3.97;2.40;;;;;;;;;;5133733;27;20533;-59
2023/06/05 01:01:42;;;;;;;4.50;2.60;;;;;;;;;;5128944;27;20051;-59
2023/06/05 01:04:09;;;;;;;3.87;2.57;;;;;;;;;;5127933;27;20419;-59
2023/06/05 01:06:38;;;;;;;4.80;2.60;;;;;;;;;;5134101;27;20463;-59
2023/06/05 01:09:06;;;;;;;3.60;2.20;;;;;;;;;;5133830;27;20055;-59
2023/06/05 01:11:37;;;;;;;4.63;2.58;;;;;;;;;;5134011;27;20403;-58
2023/06/05 01:14:09;;;;;;;3.78;2.45;;;;;;;;;;5132435;27;20058;-59
2023/06/05 01:16:37;;;;;;;3.63;2.22;;;;;;;;;;5130372;27;20047;-59
2023/06/05 01:19:04;;;;;;;5.90;2.83;;;;;;;;;;5113470;28;20431;-59
2023/06/05 01:21:32;;;;;;;3.40;2.40;;;;;;;;;;5113332;28;20408;-58
2023/06/05 01:24:01;;;;;;;4.03;2.83;;;;;;;;;;5113360;28;20052;-59
2023/06/05 01:26:34;;;;;;;4.07;2.40;;;;;;;;;;5113283;28;20059;-59
2023/06/05 01:29:02;;;;;;;4.57;2.50;;;;;;;;;;5113678;28;20423;-59
2023/06/05 01:31:36;;;;;;;5.28;2.58;;;;;;;;;;5120164;27;20395;-58
2023/06/05 01:34:05;;;;;;;3.92;2.75;;;;;;;;;;5131757;27;20055;-59
2023/06/05 01:36:32;;;;;;;4.93;2.53;;;;;;;;;;5122732;27;20055;-58
2023/06/05 01:39:01;;;;;;;4.38;2.53;;;;;;;;;;5118858;27;20058;-58
2023/06/05 01:41:28;;;;;;;4.75;2.90;;;;;;;;;;5133312;27;20522;-58
2023/06/05 01:43:56;;;;;;;4.32;2.40;;;;;;;;;;5133812;27;20054;-59
2023/06/05 01:46:23;;;;;;;5.35;2.92;;;;;;;;;;5127243;27;20059;-58
2023/06/05 01:48:51;;;;;;;4.32;2.67;;;;;;;;;;5125176;27;20055;-59
2023/06/05 01:51:17;;;;;;;4.00;2.42;;;;;;;;;;5133128;28;20066;-59
2023/06/05 01:53:48;;;;;;;4.22;2.40;;;;;;;;;;5133720;28;20058;-59
2023/06/05 01:56:19;;;;;;;5.97;2.83;;;;;;;;;;5133447;28;20082;-58
2023/06/05 01:58:46;;;;;;;5.32;3.10;;;;;;;;;;5133961;28;20500;-59
2023/06/05 02:01:15;;;;;;;3.70;2.50;;;;;;;;;;5130425;27;20042;-59
2023/06/05 02:03:47;;;;;;;4.35;2.80;;;;;;;;;;5129877;27;20054;-59
2023/06/05 02:06:15;;;;;;;5.28;2.72;;;;;;;;;;5133587;28;20051;-58
2023/06/05 02:08:42;;;;;;;3.30;2.53;;;;;;;;;;5133790;28;20047;-58
2023/06/05 02:11:10;;;;;;;5.88;3.10;;;;;;;;;;5134386;27;20044;-59
2023/06/05 02:13:39;;;;;;;4.75;3.55;;;;;;;;;;5137454;27;20492;-58
2023/06/05 02:16:07;;;;;;;5.18;3.47;;;;;;;;;;5137135;27;20058;-59
2023/06/05 02:18:36;;;;;;;5.57;3.55;;;;;;;;;;5119973;27;20063;-58
2023/06/05 02:21:03;;;;;;;6.10;3.45;;;;;;;;;;5116584;28;20055;-59
2023/06/05 02:23:31;;;;;;;6.28;3.20;;;;;;;;;;5116899;28;20056;-58
2023/06/05 02:25:58;;;;;;;5.10;3.72;;;;;;;;;;5116741;28;20067;-59
2023/06/05 02:28:26;;;;;;;7.55;3.60;;;;;;;;;;5116767;28;20396;-59
2023/06/05 02:30:55;;;;;;;6.13;3.70;;;;;;;;;;5116576;28;20059;-59
2023/06/05 02:33:23;;;;;;;5.15;3.20;;;;;;;;;;5117915;27;20052;-59
2023/06/05 02:35:49;;;;;;;4.82;3.33;;;;;;;;;;5116655;28;20056;-59
2023/06/05 02:38:19;;;;;;;5.93;3.85;;;;;;;;;;5116726;28;20051;-59
2023/06/05 02:40:45;;;;;;;5.35;3.15;;;;;;;;;;5116352;28;20130;-59
2023/06/05 02:43:14;;;;;;;5.53;3.90;;;;;;;;;;5116807;28;20047;-59
2023/06/05 02:45:41;;;;;;;7.05;3.47;;;;;;;;;;5116141;28;20056;-58
2023/06/05 02:48:09;;;;;;;5.38;3.60;;;;;;;;;;5118102;27;20348;-59
2023/06/05 02:50:36;;;;;;;7.07;3.33;;;;;;;;;;5125568;27;20039;-60
2023/06/05 02:53:03;;;;;;;5.45;3.88;;;;;;;;;;5136732;27;20060;-59
2023/06/05 02:55:32;;;;;;;5.60;3.50;;;;;;;;;;5136598;27;20051;-59
2023/06/05 02:58:02;;;;;;;5.47;3.58;;;;;;;;;;5136582;27;20055;-59
2023/06/05 03:00:32;;;;;;;4.65;3.15;;;;;;;;;;5136814;27;20081;-59
2023/06/05 03:03:00;;;;;;;4.18;3.20;;;;;;;;;;5124010;27;20052;-59
2023/06/05 03:05:28;;;;;;;5.90;3.80;;;;;;;;;;5116075;28;20416;-60
2023/06/05 03:07:58;;;;;;;7.80;3.50;;;;;;;;;;5116009;28;20056;-59
2023/06/05 03:10:26;;;;;;;6.32;3.92;;;;;;;;;;5115859;28;20415;-60
2023/06/05 03:12:53;;;;;;;5.07;3.40;;;;;;;;;;5115667;28;20055;-60
2023/06/05 03:15:20;;;;;;;6.63;3.60;;;;;;;;;;5115511;28;20408;-60
2023/06/05 03:17:47;;;;;;;5.47;3.53;;;;;;;;;;5117177;27;20054;-60
2023/06/05 03:20:14;;;;;;;6.05;3.50;;;;;;;;;;5115944;28;20476;-60
2023/06/05 03:22:42;;;;;;;6.18;3.80;;;;;;;;;;5115394;28;20048;-59
2023/06/05 03:25:11;;;;;;;6.90;3.53;;;;;;;;;;5115694;28;20489;-60
2023/06/05 03:27:38;;;;;;;5.90;3.53;;;;;;;;;;5115674;28;20058;-60
2023/06/05 03:30:06;;;;;;;4.57;3.65;;;;;;;;;;5115637;28;20059;-60
2023/06/05 03:32:33;;;;;;;4.88;2.90;;;;;;;;;;5116353;27;20039;-60
2023/06/05 03:35:01;;;;;;;5.45;3.42;;;;;;;;;;5115417;28;20058;-60
2023/06/05 03:37:28;;;;;;;4.90;3.50;;;;;;;;;;5115398;28;20384;-60
2023/06/05 03:39:58;;;;;;;8.90;3.97;;;;;;;;;;5118307;27;20047;-59
2023/06/05 03:42:28;;;;;;;4.78;3.60;;;;;;;;;;5135752;27;20047;-59
2023/06/05 03:44:55;;;;;;;6.07;3.70;;;;;;;;;;5135511;27;20062;-59
2023/06/05 03:47:23;;;;;;;5.75;4.03;;;;;;;;;;5135039;27;20051;-60
2023/06/05 03:49:50;;;;;;;5.50;3.83;;;;;;;;;;5135376;27;20467;-59
2023/06/05 03:52:17;;;;;;;7.13;3.28;;;;;;;;;;5135656;27;20047;-59
2023/06/05 03:54:44;;;;;;;5.97;3.60;;;;;;;;;;5135331;27;20055;-60
2023/06/05 03:57:14;;;;;;;5.80;3.33;;;;;;;;;;5135397;27;20407;-60
2023/06/05 03:59:41;;;;;;;6.45;3.53;;;;;;;;;;5135531;27;20062;-59
2023/06/05 04:02:11;;;;;;;5.25;3.72;;;;;;;;;;5132234;27;20044;-59
2023/06/05 04:04:41;;;;;;;4.15;3.10;;;;;;;;;;5135010;27;20058;-60
2023/06/05 04:07:07;;;;;;;5.03;3.63;;;;;;;;;;5134738;27;20475;-59
2023/06/05 04:09:34;;;;;;;5.38;3.30;;;;;;;;;;5135330;27;20047;-60
2023/06/05 04:12:03;;;;;;;5.28;3.42;;;;;;;;;;5134983;27;20066;-59
2023/06/05 04:14:31;;;;;;;5.10;3.72;;;;;;;;;;5135174;27;20051;-59
2023/06/05 04:16:59;;;;;;;5.75;3.70;;;;;;;;;;5134033;27;20058;-60
2023/06/05 04:19:26;;;;;;;7.72;4.40;;;;;;;;;;5116222;27;20054;-59
2023/06/05 04:21:53;;;;;;;5.63;3.42;;;;;;;;;;5114583;28;20052;-57
2023/06/05 04:24:20;;;;;;;5.68;3.78;;;;;;;;;;5114408;28;20428;-58
2023/06/05 04:26:47;;;;;;;6.18;3.88;;;;;;;;;;5113925;28;20059;-58
2023/06/05 04:29:15;;;;;;;6.18;4.00;;;;;;;;;;5114245;28;20056;-58
2023/06/05 04:31:44;;;;;;;5.53;4.00;;;;;;;;;;5113744;27;20055;-58
2023/06/05 04:34:11;;;;;;;6.85;4.00;;;;;;;;;;5133833;27;20055;-58
2023/06/05 04:36:38;;;;;;;9.48;4.53;;;;;;;;;;5134733;27;20058;-59
2023/06/05 04:39:14;;;;;;;6.85;3.70;;;;;;;;;;5134061;27;20070;-59
2023/06/05 04:41:44;;;;;;;7.07;3.97;;;;;;;;;;5134356;27;20080;-58
2023/06/05 04:44:12;;;;;;;6.78;3.88;;;;;;;;;;5134318;27;20063;-58
2023/06/05 04:46:39;;;;;;;5.35;4.20;;;;;;;;;;5133630;27;20062;-59
2023/06/05 04:49:08;;;;;;;8.63;4.32;;;;;;;;;;5135138;27;20051;-59
2023/06/05 04:51:36;;;;;;;6.70;3.90;;;;;;;;;;5134193;27;20051;-60
2023/06/05 04:54:03;;;;;;;6.55;4.30;;;;;;;;;;5134202;27;20073;-59
2023/06/05 04:56:32;;;;;;;6.78;4.15;;;;;;;;;;5132965;27;20059;-59
2023/06/05 04:58:59;;;;;;;7.97;4.13;;;;;;;;;;5132090;27;20047;-59
2023/06/05 05:01:27;;;;;;;6.25;4.07;;;;;;;;;;5133756;27;20062;-59
2023/06/05 05:03:54;;;;;;;7.20;4.57;;;;;;;;;;5134937;27;20055;-59
2023/06/05 05:06:22;;;;;;;5.57;4.18;;;;;;;;;;5133954;27;20055;-59
2023/06/05 05:08:49;;;;;;;6.60;4.22;;;;;;;;;;5130117;27;20415;-59
2023/06/05 05:11:16;;;;;;;6.93;4.20;;;;;;;;;;5129422;27;20051;-59
2023/06/05 05:13:43;;;;;;;6.03;4.10;;;;;;;;;;5128496;27;20056;-60
2023/06/05 05:16:10;;;;;;;5.82;3.88;;;;;;;;;;5126639;27;20051;-60
2023/06/05 05:18:38;;;;;;;5.82;4.38;;;;;;;;;;5131202;27;20054;-60
2023/06/05 05:21:06;;;;;;;7.28;4.50;;;;;;;;;;5128702;27;20054;-59
2023/06/05 05:23:34;;;;;;;6.80;5.45;;;;;;;;;;5133070;27;20047;-59
2023/06/05 05:26:01;;;;;;;15.35;10.05;;;;;;;;;;5129922;27;20059;-58
2023/06/05 05:28:28;;;;;;;16.73;10.00;;;;;;;;;;5132103;27;20062;-58
2023/06/05 05:30:56;;;;;;;12.80;7.25;;;;;;;;;;5130604;27;20066;-59
2023/06/05 05:33:23;;;;;;;11.00;5.50;;;;;;;;;;5122149;27;20492;-59
2023/06/05 05:35:50;;;;;;;8.93;5.72;;;;;;;;;;5132555;27;20054;-59
2023/06/05 05:38:17;;;;;;;8.35;5.50;;;;;;;;;;5133894;27;20055;-59
2023/06/05 05:40:45;;;;;;;8.52;5.22;;;;;;;;;;5133140;27;20456;-58
2023/06/05 05:43:12;;;;;;;7.75;5.43;;;;;;;;;;5131264;27;20054;-58
2023/06/05 05:45:42;;;;;;;8.13;5.20;;;;;;;;;;5127979;27;20467;-59
2023/06/05 05:48:08;;;;;;;;;;;;;;;;;;5129201;27;20051;-59
2023/06/05 05:50:35;;;;;;;7.10;5.32;;;;;;;;;;5131189;27;20291;-59
2023/06/05 05:53:03;;;;;;;7.95;5.05;;;;;;;;;;5131191;27;20047;-59
2023/06/05 05:55:30;;;;;;;7.20;4.50;;;;;;;;;;5132950;28;20129;-59
2023/06/05 05:57:58;;;;;;;7.53;5.43;;;;;;;;;;5133462;28;20051;-60
2023/06/05 06:00:25;;;;;;;8.98;5.30;;;;;;;;;;5132926;28;20051;-59
2023/06/05 06:02:53;;;;;;;8.35;5.50;;;;;;;;;;5133497;27;20051;-60
2023/06/05 06:05:20;;;;;;;9.73;5.30;;;;;;;;;;5133443;28;20047;-59
2023/06/05 06:07:47;;;;;;;5.78;5.18;;;;;;;;;;5133350;28;20055;-60
2023/06/05 06:10:14;;;;;;;9.18;4.90;;;;;;;;;;5133123;28;20113;-59
2023/06/05 06:12:41;;;;;;;9.82;5.25;;;;;;;;;;5131148;27;20157;-59
2023/06/05 06:15:11;;;;;;;7.60;5.10;;;;;;;;;;5133205;28;20047;-60
2023/06/05 06:17:38;;;;;;;7.55;4.82;;;;;;;;;;5130460;27;20051;-60
2023/06/05 06:20:06;;;;;;;8.63;5.38;;;;;;;;;;5131171;27;20056;-60
2023/06/05 06:22:33;;;;;;;9.05;5.22;;;;;;;;;;5132778;28;20047;-58
2023/06/05 06:25:00;;;;;;;8.00;5.55;;;;;;;;;;5131707;27;20051;-58
2023/06/05 06:27:27;;;;;;;7.70;5.03;;;;;;;;;;5133079;28;20055;-57
2023/06/05 06:29:54;;;;;;;7.15;5.00;;;;;;;;;;5133130;28;20128;-58
2023/06/05 06:32:23;;;;;;;6.22;4.82;;;;;;;;;;5130553;27;20058;-58
2023/06/05 06:34:50;;;;;;;7.30;5.07;;;;;;;;;;5132292;28;20051;-60
2023/06/05 06:37:17;;;;;;;6.35;5.10;;;;;;;;;;5133219;28;20051;-58
2023/06/05 06:39:44;;;;;;;7.43;4.80;;;;;;;;;;5132869;28;20047;-58
2023/06/05 06:42:11;;;;;;;7.70;5.22;;;;;;;;;;5133081;28;20051;-58
2023/06/05 06:44:38;;;;;;;7.00;4.88;;;;;;;;;;5131420;27;20062;-58
2023/06/05 06:47:05;;;;;;;7.03;5.00;;;;;;;;;;5132231;27;20102;-61
2023/06/05 06:49:34;;;;;;;9.23;5.35;;;;;;;;;;5131165;27;20403;-44
2023/06/05 06:52:01;;;;;;;7.28;4.57;;;;;;;;;;5123748;27;20480;-43
2023/06/05 06:54:28;;;;;;;5.07;4.00;;;;;;;;;;5121952;28;20130;-47
2023/06/05 06:56:55;;;;;;;7.32;4.35;;;;;;;;;;5125079;27;20054;-47
2023/06/05 06:59:22;;;;;;;6.60;4.70;;;;;;;;;;5123988;27;20414;-46
2023/06/05 07:02:08;;;;;;;5.03;4.25;;;;;;;;;;5124604;27;20089;-48
2023/06/05 07:04:36;;;;;;;6.20;4.85;;;;;;;;;;5126480;27;20059;-47
2023/06/05 07:07:03;;;;;;;8.80;4.45;;;;;;;;;;5127584;27;20047;-49
2023/06/05 07:09:30;;;;;;;10.57;4.70;;;;;;;;;;5127518;27;20055;-48
2023/06/05 07:11:58;;;;;;;6.60;4.45;;;;;;;;;;5127947;27;20078;-46
2023/06/05 07:14:25;;;;;;;7.38;5.05;;;;;;;;;;5127401;27;20047;-48
2023/06/05 07:16:56;;;;;;;6.78;4.13;;;;;;;;;;5125849;27;20051;-47
2023/06/05 07:19:23;;;;;;;8.77;5.07;;;;;;;;;;5125899;27;20455;-46
2023/06/05 07:21:53;;;;;;;8.35;4.60;;;;;;;;;;5124155;27;20058;-47
2023/06/05 07:24:20;;;;;;;6.95;4.22;;;;;;;;;;5126436;27;20054;-58
2023/06/05 07:26:47;;;;;;;8.48;3.60;;;;;;;;;;5130087;27;20066;-58
2023/06/05 07:29:14;;;;;;;6.05;4.38;;;;;;;;;;5127108;27;20419;-57
2023/06/05 07:31:41;;;;;;;7.25;4.38;;;;;;;;;;5125958;27;20069;-57
2023/06/05 07:34:08;;;;;;;6.22;4.00;;;;;;;;;;5126839;27;20043;-57
2023/06/05 07:36:36;;;;;;;6.78;4.03;;;;;;;;;;5126906;27;20058;-57
2023/06/05 07:39:04;;;;;;;6.72;3.80;;;;;;;;;;5127076;27;20051;-57
2023/06/05 07:41:31;;;;;;;5.28;3.55;;;;;;;;;;5126916;27;20768;-57
2023/06/05 07:43:58;;;;;;;5.88;3.75;;;;;;;;;;5121253;27;20492;-57
2023/06/05 07:46:25;;;;;;;8.00;4.28;;;;;;;;;;5125016;27;20062;-57
2023/06/05 07:48:51;;;;;;;4.95;3.80;;;;;;;;;;5124636;27;20051;-57
2023/06/05 07:51:18;;;;;;;8.02;4.03;;;;;;;;;;5123263;27;20058;-57
2023/06/05 07:53:45;;;;;;;7.32;3.67;;;;;;;;;;5126863;27;20573;-57
2023/06/05 07:56:16;;;;;;;6.68;3.60;;;;;;;;;;5119029;27;20047;-57
2023/06/05 07:58:43;;;;;;;6.28;3.20;;;;;;;;;;5125266;27;20066;-58
2023/06/05 08:01:12;;;;;;;5.65;3.53;;;;;;;;;;5128109;27;20058;-57
2023/06/05 08:03:41;;;;;;;5.22;3.50;;;;;;;;;;5126509;27;20043;-57
2023/06/05 08:06:08;;;;;;;5.75;3.63;;;;;;;;;;5125120;27;20051;-58
2023/06/05 08:08:35;;;;;;;4.93;3.38;;;;;;;;;;5124603;27;20069;-57
2023/06/05 08:11:01;;;;;;;5.85;3.60;;;;;;;;;;5121965;27;20078;-58
2023/06/05 08:13:30;;;;;;;4.38;3.50;;;;;;;;;;5121134;27;20051;-58
2023/06/05 08:15:57;;;;;;;4.43;3.23;;;;;;;;;;5126922;27;20054;-57
2023/06/05 08:18:23;;;;;;;4.63;2.92;;;;;;;;;;5125749;27;20061;-58
2023/06/05 08:20:50;;;;;;;4.97;3.10;;;;;;;;;;5126217;27;20047;-58
2023/06/05 08:23:17;;;;;;;5.85;3.33;;;;;;;;;;5122250;27;20047;-58
2023/06/05 08:25:44;;;;;;;4.60;2.80;;;;;;;;;;5127177;27;20430;-58
2023/06/05 08:28:11;;;;;;;4.45;3.30;;;;;;;;;;5126041;27;20070;-58
2023/06/05 08:30:40;;;;;;;3.83;3.00;;;;;;;;;;5119446;27;20069;-59
2023/06/05 08:33:06;;;;;;;;;;;;;;;;;;5126115;27;20051;-59
2023/06/05 08:35:33;;;;;;;5.22;3.03;;;;;;;;;;5124487;27;21868;-59
2023/06/05 08:38:01;;;;;;;4.40;3.40;;;;;;;;;;5119154;27;21413;-59
2023/06/05 08:40:29;;;;;;;4.95;2.90;;;;;;;;;;5124443;27;20579;-58
2023/06/05 08:42:56;;;;;;;5.70;3.20;;;;;;;;;;5124298;27;20051;-58
2023/06/05 08:45:23;;;;;;;7.35;2.90;;;;;;;;;;5123669;27;20106;-59
2023/06/05 08:47:52;;;;;;;6.80;3.17;;;;;;;;;;5126339;27;20479;-59
2023/06/05 08:50:19;;;;;;;5.10;3.08;;;;;;;;;;5119261;27;20487;-59
2023/06/05 08:52:48;;;;;;;5.60;3.00;;;;;;;;;;5125604;27;20063;-59
2023/06/05 08:55:15;;;;;;;3.92;3.13;;;;;;;;;;5119418;27;20051;-59
2023/06/05 08:57:42;;;;;;;4.53;2.63;;;;;;;;;;5126261;27;20319;-59
2023/06/05 09:00:11;;;;;;;6.80;2.77;;;;;;;;;;5125031;27;20047;-59
2023/06/05 09:02:39;;;;;;;3.47;2.45;;;;;;;;;;5125898;27;20055;-59
2023/06/05 09:05:08;;;;;;;6.07;2.50;;;;;;;;;;5124257;27;20518;-59
2023/06/05 09:07:36;;;;;;;4.25;2.30;;;;;;;;;;5123172;27;20051;-59
2023/06/05 09:10:03;;;;;;;3.85;2.60;;;;;;;;;;5124984;27;20051;-60
2023/06/05 09:12:30;;;;;;;3.67;2.22;;;;;;;;;;5123028;27;20414;-59
2023/06/05 09:14:57;;;;;;;6.30;2.78;;;;;;;;;;5120383;27;20057;-59
2023/06/05 09:17:23;;;;;;;4.40;2.50;;;;;;;;;;5123779;27;20059;-59
2023/06/05 09:19:51;;;;;;;3.83;2.58;;;;;;;;;;5124298;27;20483;-59
2023/06/05 09:22:32;;;;;;;3.58;2.60;;;;;;;;;;5123106;27;20054;-59
2023/06/05 09:25:01;;;;;;;3.95;2.38;;;;;;;;;;5123706;27;20070;-59
2023/06/05 09:27:27;;;;;;;4.95;2.40;;;;;;;;;;5122963;27;20059;-60
2023/06/05 09:30:02;;;;;;;7.30;2.42;;;;;;;;;;5125926;27;20047;-59
2023/06/05 09:32:30;;;;;;;3.95;2.40;;;;;;;;;;5125815;27;20062;-59
2023/06/05 09:35:00;;;;;;;3.00;1.90;;;;;;;;;;5121461;27;20058;-59
2023/06/05 09:37:35;;;;;;;3.50;2.33;;;;;;;;;;5125187;27;20051;-59
2023/06/05 09:40:03;;;;;;;3.42;2.15;;;;;;;;;;5126245;27;20066;-60
2023/06/05 09:42:33;;;;;;;6.20;2.40;;;;;;;;;;5125099;27;20472;-59
2023/06/05 09:45:00;;;;;;;4.32;3.08;;;;;;;;;;5123691;27;20058;-59
2023/06/05 09:47:27;;;;;;;3.53;2.33;;;;;;;;;;5123460;27;20043;-59
2023/06/05 09:49:54;;;;;;;4.23;2.73;;;;;;;;;;5124078;27;20078;-59
2023/06/05 09:52:21;;;;;;;5.80;2.92;;;;;;;;;;5124099;28;20054;-60
2023/06/05 09:54:49;;;;;;;2.83;2.33;;;;;;;;;;5124734;28;20055;-60
2023/06/05 09:57:16;;;;;;;5.60;2.38;;;;;;;;;;5122040;28;20047;-60
2023/06/05 09:59:46;;;;;;;5.32;2.50;;;;;;;;;;5124772;28;20058;-60
2023/06/05 10:02:16;;;;;;;4.40;2.50;;;;;;;;;;5123792;28;20499;-60
2023/06/05 10:04:46;;;;;;;4.78;2.58;;;;;;;;;;5122984;27;20066;-58
2023/06/05 10:07:13;;;;;;;3.65;1.98;;;;;;;;;;5123452;28;20507;-60
2023/06/05 10:09:41;;;;;;;3.05;2.50;;;;;;;;;;5127048;28;20054;-63
2023/06/05 10:12:10;;;;;;;4.72;2.08;;;;;;;;;;5126662;28;20055;-63
2023/06/05 10:14:37;;;;;;;5.15;2.47;;;;;;;;;;5123933;28;20497;-63
2023/06/05 10:17:04;;;;;;;;;;;;;;;;;;5123719;28;20495;-63
2023/06/05 10:19:31;;;;;;;4.32;2.28;;;;;;;;;;5119431;27;19932;-61
2023/06/05 10:21:57;;;;;;;3.60;2.40;;;;;;;;;;5122840;28;20975;-63
2023/06/05 10:24:25;;;;;;;2.88;2.10;;;;;;;;;;5123245;28;20051;-63
2023/06/05 10:26:57;;;;;;;2.92;2.30;;;;;;;;;;5124036;28;20062;-63
2023/06/05 10:29:41;;;;;;;3.08;2.25;;;;;;;;;;5123465;27;20054;-62
2023/06/05 10:32:11;;;;;;;3.47;2.10;;;;;;;;;;5120335;27;20047;-63
2023/06/05 10:34:47;;;;;;;4.60;2.55;;;;;;;;;;5121515;27;20476;-63
2023/06/05 10:37:32;;;;;;;2.60;2.23;;;;;;;;;;5124130;27;20058;-63
2023/06/05 10:39:59;;;;;;;3.28;2.40;;;;;;;;;;5114500;27;20055;-62
2023/06/05 10:42:26;;;;;;;6.18;2.30;;;;;;;;;;5126611;27;20499;-60
2023/06/05 10:44:54;;;;;;;3.45;2.50;;;;;;;;;;5125001;27;20043;-60
2023/06/05 10:47:39;;;;;;;3.67;2.50;;;;;;;;;;5125130;27;20051;-60
2023/06/05 10:50:24;;;;;;;4.38;2.40;;;;;;;;;;5121310;27;20051;-60
2023/06/05 10:52:52;;;;;;;4.65;2.50;;;;;;;;;;5124885;27;20051;-60
2023/06/05 10:55:20;;;;;;;5.38;2.38;;;;;;;;;;5127086;27;20487;-62
2023/06/05 10:57:46;;;;;;;;;;;;;;;;;;5126552;27;20419;-60
2023/06/05 11:00:15;;;;;;;3.63;2.10;;;;;;;;;;5129062;27;19938;-60
2023/06/05 11:02:47;;;;;;;3.72;2.10;;;;;;;;;;5125578;27;20047;-60
2023/06/05 11:05:14;;;;;;;3.63;2.17;;;;;;;;;;5122048;27;20047;-60
2023/06/05 11:07:42;;;;;;;3.58;2.22;;;;;;;;;;5129109;27;20058;-61
2023/06/05 11:10:18;;;;;;;3.10;1.98;;;;;;;;;;5127013;27;20058;-60
2023/06/05 11:12:57;;;;;;;4.00;2.00;;;;;;;;;;5133787;27;20062;-60
2023/06/05 11:15:43;;;;;;;2.40;1.80;;;;;;;;;;5132381;27;20059;-60
2023/06/05 11:18:29;;;;;;;3.42;2.38;;;;;;;;;;5131226;27;20051;-60
2023/06/05 11:20:56;;;;;;;2.65;2.00;;;;;;;;;;5130237;27;20487;-61
2023/06/05 11:23:27;;;;;;;;;;;;;;;;;;5134569;27;20404;-60
2023/06/05 11:25:56;;;;;;;2.83;1.75;;;;;;;;;;5131818;27;19919;-60
2023/06/05 11:28:38;;;;;;;3.10;1.83;;;;;;;;;;5131037;27;20047;-60
2023/06/05 11:31:07;;;;;;;2.58;2.05;;;;;;;;;;5132814;27;20411;-60
2023/06/05 11:33:34;;;;;;;3.50;1.90;;;;;;;;;;5132142;27;20055;-60
2023/06/05 11:36:01;;;;;;;4.40;1.80;;;;;;;;;;5130048;27;20484;-60
2023/06/05 11:38:28;;;;;;;1.80;1.50;;;;;;;;;;5133064;27;20475;-60
2023/06/05 11:40:55;;;;;;;2.88;1.70;;;;;;;;;;5133405;27;20055;-60
2023/06/05 11:43:22;;;;;;;2.40;1.65;;;;;;;;;;5131896;27;20125;-60
2023/06/05 11:45:50;;;;;;;3.72;1.95;;;;;;;;;;5132178;27;20060;-58
2023/06/05 11:48:18;;;;;;;2.80;1.92;;;;;;;;;;5130451;27;20055;-59
2023/06/05 11:50:52;;;;;;;5.00;1.90;;;;;;;;;;5132846;27;20054;-59
2023/06/05 11:53:20;;;;;;;4.53;1.83;;;;;;;;;;5132202;27;20066;-59
2023/06/05 11:56:05;;;;;;;;;;;;;;;;;;5130877;27;20542;-59
2023/06/05 11:58:34;;;;;;;2.53;1.55;;;;;;;;;;5132162;27;19920;-59
2023/06/05 12:01:09;;;;;;;3.03;1.70;;;;;;;;;;5122908;27;20054;-59
2023/06/05 12:03:38;;;;;;;2.95;1.70;;;;;;;;;;5127550;27;20054;-60
2023/06/05 12:06:05;;;;;;;4.45;1.92;;;;;;;;;;5132422;27;20043;-60
2023/06/05 12:08:33;;;;;;;3.35;1.90;;;;;;;;;;5123883;27;20522;-60
2023/06/05 12:11:00;;;;;;;2.30;1.70;;;;;;;;;;5132120;27;20058;-60
2023/06/05 12:13:41;;;;;;;2.65;1.90;;;;;;;;;;5131159;27;20058;-60
2023/06/05 12:16:08;;;;;;;3.22;2.00;;;;;;;;;;5132969;27;20055;-60
2023/06/05 12:18:36;;;;;;;6.28;1.77;;;;;;;;;;5131087;27;20058;-59
2023/06/05 12:21:06;;;;;;;3.63;1.73;;;;;;;;;;5128106;27;20055;-59
2023/06/05 12:23:33;;;;;;;4.75;1.73;;;;;;;;;;5130333;27;20056;-59
2023/06/05 12:26:00;;;;;;;3.53;1.70;;;;;;;;;;5131117;27;20051;-60
2023/06/05 12:28:27;;;;;;;3.50;1.90;;;;;;;;;;5131573;27;20062;-59
2023/06/05 12:30:54;;;;;;;;;;;;;;;;;;5130866;27;20050;-60
2023/06/05 12:33:21;;;;;;;2.93;1.90;;;;;;;;;;5132465;27;19920;-59
2023/06/05 12:36:02;;;;;;;3.38;1.88;;;;;;;;;;5132174;27;20051;-59
2023/06/05 12:38:29;;;;;;;3.22;1.90;;;;;;;;;;5130701;27;20062;-59
2023/06/05 12:40:57;;;;;;;4.20;2.10;;;;;;;;;;5131854;27;20066;-59
2023/06/05 12:43:24;;;;;;;2.65;2.20;;;;;;;;;;5128388;27;20495;-59
2023/06/05 12:45:51;;;;;;;3.00;2.20;;;;;;;;;;5129115;27;20055;-60
2023/06/05 12:48:19;;;;;;;2.58;2.00;;;;;;;;;;5129620;27;20047;-62
2023/06/05 12:50:45;;;;;;;;;;;;;;;;;;5131025;27;20047;-60
2023/06/05 12:53:14;;;;;;;2.80;2.20;;;;;;;;;;5124763;27;19920;-59
2023/06/05 12:55:41;;;;;;;3.80;1.85;;;;;;;;;;5131037;27;20492;-60
2023/06/05 12:58:07;;;;;;;2.57;2.00;;;;;;;;;;5131699;27;20055;-60
2023/06/05 13:00:34;;;;;;;3.78;2.00;;;;;;;;;;5131783;27;21011;-60
2023/06/05 13:03:03;;;;;;;4.10;2.40;;;;;;;;;;5129159;27;20058;-60
2023/06/05 13:05:31;;;;;;;2.30;1.80;;;;;;;;;;5131768;27;20043;-60
2023/06/05 13:07:58;;;;;;;2.80;1.73;;;;;;;;;;5132474;27;20073;-60
2023/06/05 13:10:26;;;;;;;2.20;1.80;;;;;;;;;;5128355;27;20063;-60
2023/06/05 13:12:53;;;;;;;2.85;1.90;;;;;;;;;;5125339;27;20055;-60
2023/06/05 13:15:20;;;;;;;3.00;1.98;;;;;;;;;;5130229;27;20121;-60
2023/06/05 13:17:47;;;;;;;4.05;2.05;;;;;;;;;;5128698;27;20047;-59
2023/06/05 13:20:14;;;;;;;2.40;1.77;;;;;;;;;;5126093;27;20047;-59
2023/06/05 13:22:41;;;;;;;4.55;1.95;;;;;;;;;;5130757;27;20493;-60
2023/06/05 13:25:09;;;;;;;2.47;1.70;;;;;;;;;;5130109;27;20051;-60
2023/06/05 13:27:37;;;;;;;6.50;2.00;;;;;;;;;;5131932;27;20054;-60
2023/06/05 13:30:03;;;;;;;;;;;;;;;;;;5130551;27;20043;-60
2023/06/05 13:32:31;;;;;;;3.33;1.80;;;;;;;;;;5126898;27;19931;-59
2023/06/05 13:34:58;;;;;;;3.15;2.00;;;;;;;;;;5128867;27;20047;-59
2023/06/05 13:37:25;;;;;;;3.42;1.83;;;;;;;;;;5131934;27;20057;-59
2023/06/05 13:39:52;;;;;;;3.22;2.00;;;;;;;;;;5128906;27;20050;-60
2023/06/05 13:42:19;;;;;;;5.28;1.73;;;;;;;;;;5127256;27;20062;-59
2023/06/05 13:44:47;;;;;;;3.92;2.03;;;;;;;;;;5130240;27;20047;-59
2023/06/05 13:47:14;;;;;;;;;;;;;;;;;;5129108;27;20484;-59
2023/06/05 13:49:41;;;;;;;2.40;1.75;;;;;;;;;;5129956;27;19919;-60
2023/06/05 13:52:08;;;;;;;2.20;1.97;;;;;;;;;;5131474;27;20053;-60
2023/06/05 13:54:34;;;;;;;3.80;1.77;;;;;;;;;;5130658;28;20047;-59
2023/06/05 13:57:02;;;;;;;2.58;1.83;;;;;;;;;;5131292;28;20402;-60
2023/06/05 13:59:29;;;;;;;2.53;1.92;;;;;;;;;;5130612;28;20047;-60
2023/06/05 14:01:57;;;;;;;3.03;2.00;;;;;;;;;;5129123;28;20084;-60
2023/06/05 14:04:24;;;;;;;4.40;2.22;;;;;;;;;;5128411;27;20058;-60
2023/06/05 14:06:51;;;;;;;5.32;2.10;;;;;;;;;;5131593;27;20054;-60
2023/06/05 14:09:19;;;;;;;3.83;1.90;;;;;;;;;;5134688;27;20066;-59
2023/06/05 14:11:45;;;;;;;3.65;1.90;;;;;;;;;;5131150;27;20058;-59
2023/06/05 14:14:12;;;;;;;3.88;2.25;;;;;;;;;;5135615;27;20407;-59
2023/06/05 14:16:39;;;;;;;3.20;2.13;;;;;;;;;;5133826;27;20051;-59
2023/06/05 14:19:07;;;;;;;5.05;2.20;;;;;;;;;;5134665;27;20399;-59
2023/06/05 14:21:35;;;;;;;4.78;2.10;;;;;;;;;;5133211;27;20058;-59
2023/06/05 14:24:02;;;;;;;3.50;1.90;;;;;;;;;;5134415;27;20054;-59
2023/06/05 14:26:29;;;;;;;2.67;1.90;;;;;;;;;;5134275;27;20058;-59
2023/06/05 14:28:56;;;;;;;3.88;2.03;;;;;;;;;;5134277;27;20054;-59
2023/06/05 14:31:25;;;;;;;3.05;2.03;;;;;;;;;;5134084;27;20047;-59
2023/06/05 14:33:52;;;;;;;5.40;2.15;;;;;;;;;;5134036;27;20047;-59
2023/06/05 14:36:20;;;;;;;3.38;2.10;;;;;;;;;;5133504;27;20047;-59
2023/06/05 14:38:50;;;;;;;4.88;1.90;;;;;;;;;;5133241;27;20452;-59
2023/06/05 14:41:16;;;;;;;3.67;2.53;;;;;;;;;;5132816;27;20066;-59
2023/06/05 14:43:43;;;;;;;3.60;2.28;;;;;;;;;;5132732;27;20051;-61
2023/06/05 14:46:10;;;;;;;3.72;2.05;;;;;;;;;;5135922;27;20394;-59
2023/06/05 14:48:37;;;;;;;4.68;2.05;;;;;;;;;;5134339;27;20046;-60
2023/06/05 14:51:04;;;;;;;2.88;2.10;;;;;;;;;;5135075;27;20062;-60